createdAt,value
2023-03-07T00:01:27.987Z,100.00
2023-03-07T00:04:31.255Z,100.00
2023-03-07T00:07:36.832Z,100.00
2023-03-07T00:10:40.097Z,100.00
2023-03-07T00:13:43.220Z,100.00
2023-03-07T00:16:46.613Z,100.00
2023-03-07T00:19:49.727Z,100.00
2023-03-07T00:22:54.540Z,100.00
2023-03-07T00:25:59.930Z,100.00
2023-03-07T00:29:03.079Z,100.00
2023-03-07T00:32:06.965Z,100.00
2023-03-07T00:35:10.408Z,100.00
2023-03-07T00:38:14.906Z,100.00
2023-03-07T00:41:19.984Z,100.00
2023-03-07T00:44:25.315Z,100.00
2023-03-07T00:47:28.479Z,100.00
2023-03-07T00:50:32.255Z,100.00
2023-03-07T00:53:37.647Z,100.00
2023-03-07T00:56:40.786Z,100.00
2023-03-07T00:59:44.414Z,100.00
2023-03-07T01:02:47.579Z,100.00
2023-03-07T01:05:51.560Z,100.00
2023-03-07T01:08:57.970Z,100.00
2023-03-07T01:12:02.089Z,100.00
2023-03-07T01:15:06.621Z,100.00
2023-03-07T01:18:11.258Z,100.00
2023-03-07T01:21:17.177Z,100.00
2023-03-07T01:24:21.780Z,100.00
2023-03-07T01:27:24.883Z,100.00
2023-03-07T01:30:28.613Z,100.00
2023-03-07T01:33:32.540Z,100.00
2023-03-07T01:36:36.894Z,100.00
2023-03-07T01:39:42.943Z,100.00
2023-03-07T01:42:50.004Z,100.00
2023-03-07T01:46:31.147Z,100.00
2023-03-07T01:49:37.318Z,100.00
2023-03-07T01:52:43.261Z,100.00
2023-03-07T01:55:48.687Z,100.00
2023-03-07T01:58:56.568Z,100.00
2023-03-07T02:02:04.616Z,100.00
2023-03-07T02:05:12.322Z,100.00
2023-03-07T02:08:18.081Z,100.00
2023-03-07T02:11:22.969Z,100.00
2023-03-07T02:14:26.266Z,100.00
2023-03-07T02:17:29.742Z,100.00
2023-03-07T02:20:41.201Z,100.00
2023-03-07T02:23:57.037Z,100.00
2023-03-07T02:27:03.738Z,100.00
2023-03-07T02:30:09.495Z,100.00
2023-03-07T02:33:13.149Z,100.00
2023-03-07T02:36:21.413Z,100.00
2023-03-07T02:39:33.862Z,100.00
2023-03-07T02:42:42.645Z,100.00
2023-03-07T02:45:49.552Z,100.00
2023-03-07T02:48:52.916Z,100.00
2023-03-07T02:52:00.424Z,100.00
2023-03-07T02:55:04.733Z,100.00
2023-03-07T02:58:13.175Z,100.00
2023-03-07T03:01:16.703Z,100.00
2023-03-07T03:04:19.944Z,100.00
2023-03-07T03:07:23.086Z,100.00
2023-03-07T03:10:26.249Z,100.00
2023-03-07T03:13:31.564Z,100.00
2023-03-07T03:16:35.092Z,100.00
2023-03-07T03:19:38.431Z,100.00
2023-03-07T03:22:42.427Z,100.00
2023-03-07T03:25:46.824Z,100.00
2023-03-07T03:28:55.169Z,100.00
2023-03-07T03:31:58.633Z,100.00
2023-03-07T03:35:01.823Z,100.00
2023-03-07T03:38:05.922Z,100.00
2023-03-07T03:41:13.386Z,100.00
2023-03-07T03:44:18.388Z,100.00
2023-03-07T03:47:21.631Z,100.00
2023-03-07T03:50:24.954Z,100.00
2023-03-07T03:53:28.290Z,100.00
2023-03-07T03:56:31.923Z,100.00
2023-03-07T03:59:36.607Z,100.00
2023-03-07T04:02:40.092Z,100.00
2023-03-07T04:05:47.137Z,100.00
2023-03-07T04:08:52.093Z,100.00
2023-03-07T04:11:55.736Z,100.00
2023-03-07T04:15:00.470Z,100.00
2023-03-07T04:18:03.758Z,100.00
2023-03-07T04:21:08.362Z,100.00
2023-03-07T04:24:11.783Z,100.00
2023-03-07T04:27:15.038Z,100.00
2023-03-07T04:34:23.659Z,100.00
2023-03-07T04:37:27.052Z,100.00
2023-03-07T04:40:30.400Z,100.00
2023-03-07T04:43:34.484Z,100.00
2023-03-07T04:46:38.071Z,100.00
2023-03-07T04:49:42.678Z,100.00
2023-03-07T04:52:45.874Z,100.00
2023-03-07T04:55:50.112Z,100.00
2023-03-07T04:58:53.401Z,100.00
2023-03-07T05:01:56.577Z,100.00
2023-03-07T05:05:01.378Z,100.00
2023-03-07T05:08:05.158Z,100.00
2023-03-07T05:11:08.573Z,100.00
2023-03-07T05:14:12.206Z,100.00
2023-03-07T05:17:15.498Z,100.00
2023-03-07T05:20:20.668Z,100.00
2023-03-07T05:23:24.438Z,100.00
2023-03-07T05:26:29.525Z,100.00
2023-03-07T05:29:33.425Z,100.00
2023-03-07T05:32:36.590Z,100.00
2023-03-07T05:35:42.057Z,100.00
2023-03-07T05:38:46.698Z,100.00
2023-03-07T05:41:50.138Z,100.00
2023-03-07T05:44:54.134Z,100.00
2023-03-07T05:47:57.637Z,100.00
2023-03-07T05:51:02.361Z,100.00
2023-03-07T05:54:06.563Z,100.00
2023-03-07T05:57:11.119Z,100.00
2023-03-07T06:00:17.050Z,100.00
2023-03-07T06:03:28.247Z,100.00
2023-03-07T06:06:32.847Z,100.00
2023-03-07T06:09:36.190Z,100.00
2023-03-07T06:12:39.562Z,100.00
2023-03-07T06:15:42.949Z,100.00
2023-03-07T06:18:46.360Z,100.00
2023-03-07T06:21:51.123Z,100.00
2023-03-07T06:24:55.998Z,100.00
2023-03-07T06:28:01.345Z,100.00
2023-03-07T06:31:09.956Z,100.00
2023-03-07T06:34:13.233Z,100.00
2023-03-07T06:37:17.909Z,100.00
2023-03-07T06:40:21.607Z,100.00
2023-03-07T06:43:24.965Z,100.00
2023-03-07T06:46:28.554Z,100.00
2023-03-07T06:49:33.462Z,100.00
2023-03-07T06:52:38.066Z,100.00
2023-03-07T06:55:41.642Z,100.00
2023-03-07T06:58:50.246Z,100.00
2023-03-07T07:01:53.751Z,100.00
2023-03-07T07:05:00.821Z,100.00
2023-03-07T07:08:06.345Z,100.00
2023-03-07T07:11:09.817Z,100.00
2023-03-07T07:14:14.210Z,100.00
2023-03-07T07:17:18.438Z,100.00
2023-03-07T07:20:22.772Z,100.00
2023-03-07T07:23:28.072Z,100.00
2023-03-07T07:26:31.503Z,100.00
2023-03-07T07:29:36.050Z,100.00
2023-03-07T07:32:39.457Z,100.00
2023-03-07T07:35:43.948Z,100.00
2023-03-07T07:38:49.111Z,100.00
2023-03-07T07:41:52.385Z,100.00
2023-03-07T07:44:58.118Z,100.00
2023-03-07T07:48:01.574Z,100.00
2023-03-07T07:51:07.161Z,100.00
2023-03-07T07:54:14.626Z,100.00
2023-03-07T07:57:17.852Z,100.00
2023-03-07T08:00:22.421Z,100.00
2023-03-07T08:03:25.665Z,100.00
2023-03-07T08:06:29.644Z,100.00
2023-03-07T08:09:35.111Z,100.00
2023-03-07T08:12:38.458Z,100.00
2023-03-07T08:15:42.623Z,100.00
2023-03-07T08:18:50.482Z,100.00
2023-03-07T08:21:53.565Z,100.00
2023-03-07T08:24:58.097Z,100.00
2023-03-07T08:28:03.453Z,100.00
2023-03-07T08:31:10.997Z,100.00
2023-03-07T08:34:14.192Z,100.00
2023-03-07T08:37:17.282Z,100.00
2023-03-07T08:40:24.102Z,100.00
2023-03-07T08:43:27.381Z,100.00
2023-03-07T08:46:30.746Z,100.00
2023-03-07T08:49:33.942Z,100.00
2023-03-07T08:52:37.686Z,100.00
2023-03-07T08:55:43.445Z,100.00
2023-03-07T08:58:47.162Z,100.00
2023-03-07T09:01:50.440Z,100.00
2023-03-07T09:04:54.043Z,100.00
2023-03-07T09:07:57.209Z,100.00
2023-03-07T09:11:05.353Z,100.00
2023-03-07T09:14:08.549Z,100.00
2023-03-07T09:17:11.735Z,100.00
2023-03-07T09:20:17.098Z,100.00
2023-03-07T09:23:20.400Z,100.00
2023-03-07T09:26:24.901Z,100.00
2023-03-07T09:29:28.200Z,100.00
2023-03-07T09:32:33.167Z,100.00
2023-03-07T09:35:36.386Z,100.00
2023-03-07T09:38:39.926Z,100.00
2023-03-07T09:41:56.833Z,100.00
2023-03-07T09:45:24.988Z,100.00
2023-03-07T09:49:09.252Z,100.00
2023-03-07T09:52:15.555Z,100.00
2023-03-07T09:55:21.813Z,100.00
2023-03-07T09:58:27.781Z,100.00
2023-03-07T10:01:35.833Z,100.00
2023-03-07T10:04:42.562Z,100.00
2023-03-07T10:07:45.799Z,100.00
2023-03-07T10:10:59.361Z,100.00
2023-03-07T10:14:16.603Z,100.00
2023-03-07T10:17:31.042Z,100.00
2023-03-07T10:20:42.748Z,100.00
2023-03-07T10:24:12.212Z,100.00
2023-03-07T10:27:16.630Z,100.00
2023-03-07T10:34:28.141Z,100.00
2023-03-07T10:37:44.874Z,100.00
2023-03-07T10:40:53.210Z,100.00
2023-03-07T10:43:57.349Z,100.00
2023-03-07T10:47:00.974Z,100.00
2023-03-07T10:50:22.698Z,100.00
2023-03-07T10:53:27.612Z,100.00
2023-03-07T10:56:30.861Z,100.00
2023-03-07T10:59:34.987Z,100.00
2023-03-07T11:02:44.675Z,100.00
2023-03-07T11:05:50.313Z,100.00
2023-03-07T11:08:53.674Z,100.00
2023-03-07T11:11:59.491Z,100.00
2023-03-07T11:15:12.871Z,100.00
2023-03-07T11:18:30.775Z,100.00
2023-03-07T11:21:37.096Z,100.00
2023-03-07T11:24:41.155Z,100.00
2023-03-07T11:27:50.640Z,100.00
2023-03-07T11:30:54.901Z,100.00
2023-03-07T11:34:03.984Z,100.00
2023-03-07T11:37:29.222Z,100.00
2023-03-07T11:40:41.158Z,100.00
2023-03-07T11:43:56.378Z,100.00
2023-03-07T11:47:22.081Z,100.00
2023-03-07T11:50:27.590Z,100.00
2023-03-07T11:53:53.832Z,100.00
2023-03-07T11:57:04.920Z,100.00
2023-03-07T12:00:24.141Z,100.00
2023-03-07T12:03:44.073Z,100.00
2023-03-07T12:06:55.123Z,100.00
2023-03-07T12:10:05.756Z,100.00
2023-03-07T12:13:21.000Z,100.00
2023-03-07T12:16:38.929Z,100.00
2023-03-07T12:20:07.933Z,100.00
2023-03-07T12:23:19.048Z,100.00
2023-03-07T12:26:29.941Z,100.00
2023-03-07T12:29:38.835Z,100.00
2023-03-07T12:32:42.485Z,100.00
2023-03-07T12:35:50.386Z,100.00
2023-03-07T12:39:00.503Z,100.00
2023-03-07T12:42:14.330Z,100.00
2023-03-07T12:45:21.476Z,100.00
2023-03-07T12:48:35.441Z,100.00
2023-03-07T12:51:43.381Z,100.00
2023-03-07T12:54:57.332Z,99.00
2023-03-07T12:58:07.945Z,99.49
2023-03-07T13:01:16.202Z,99.14
2023-03-07T13:04:26.725Z,99.13
2023-03-07T13:07:33.432Z,100.00
2023-03-07T13:10:37.885Z,100.00
2023-03-07T13:13:58.241Z,100.00
2023-03-07T13:17:01.410Z,98.95
2023-03-07T13:20:26.140Z,98.76
2023-03-07T13:23:30.686Z,98.86
2023-03-07T13:26:34.446Z,100.00
2023-03-07T13:30:26.509Z,99.92
2023-03-07T13:33:30.058Z,98.68
2023-03-07T13:36:35.960Z,92.46
2023-03-07T13:39:58.948Z,94.52
2023-03-07T13:43:03.243Z,94.88
2023-03-07T13:46:28.048Z,94.17
2023-03-07T13:49:45.779Z,93.92
2023-03-07T13:52:49.121Z,94.05
2023-03-07T13:55:58.281Z,94.84
2023-03-07T13:59:04.434Z,94.96
2023-03-07T14:02:13.937Z,93.89
2023-03-07T14:05:18.229Z,92.81
2023-03-07T14:08:26.517Z,91.46
2023-03-07T14:11:42.085Z,90.49
2023-03-07T14:15:17.386Z,90.50
2023-03-07T14:18:31.936Z,89.91
2023-03-07T14:21:47.911Z,90.65
2023-03-07T14:25:19.071Z,90.25
2023-03-07T14:28:26.863Z,89.66
2023-03-07T14:31:32.850Z,90.39
2023-03-07T14:34:37.770Z,92.00
2023-03-07T14:37:40.984Z,91.15
2023-03-07T14:40:58.690Z,88.98
2023-03-07T14:44:14.743Z,88.86
2023-03-07T14:47:29.850Z,90.96
2023-03-07T14:50:34.092Z,92.09
2023-03-07T14:53:37.627Z,91.71
2023-03-07T14:56:41.135Z,91.13
2023-03-07T15:00:03.767Z,90.20
2023-03-07T15:03:10.997Z,90.92
2023-03-07T15:06:16.545Z,90.49
2023-03-07T15:09:22.990Z,91.89
2023-03-07T15:12:30.303Z,92.01
2023-03-07T15:15:40.797Z,92.14
2023-03-07T15:18:48.736Z,92.25
2023-03-07T15:21:54.069Z,91.65
2023-03-07T15:24:57.760Z,90.52
2023-03-07T15:28:02.930Z,90.94
2023-03-07T15:31:08.637Z,91.62
2023-03-07T15:34:21.076Z,91.34
2023-03-07T15:37:25.620Z,92.07
2023-03-07T15:40:31.590Z,92.09
2023-03-07T15:43:36.369Z,92.15
2023-03-07T15:46:44.084Z,91.22
2023-03-07T15:49:49.584Z,93.06
2023-03-07T15:52:55.069Z,93.99
2023-03-07T15:56:01.524Z,93.71
2023-03-07T15:59:09.944Z,94.66
2023-03-07T16:02:31.836Z,95.19
2023-03-07T16:05:39.859Z,94.83
2023-03-07T16:08:43.042Z,95.18
2023-03-07T16:11:47.508Z,96.22
2023-03-07T16:14:53.687Z,96.25
2023-03-07T16:17:58.596Z,96.96
2023-03-07T16:21:03.597Z,95.83
2023-03-07T16:24:07.574Z,97.07
2023-03-07T16:27:15.098Z,98.78
2023-03-07T16:34:23.870Z,98.61
2023-03-07T16:37:28.640Z,99.96
2023-03-07T16:40:33.071Z,100.00
2023-03-07T16:43:38.070Z,99.06
2023-03-07T16:46:43.104Z,100.00
2023-03-07T16:49:49.060Z,100.00
2023-03-07T16:52:52.197Z,98.36
2023-03-07T16:55:56.888Z,99.66
2023-03-07T16:59:01.003Z,99.68
2023-03-07T17:02:14.143Z,100.00
2023-03-07T17:05:21.524Z,99.63
2023-03-07T17:08:24.664Z,100.00
2023-03-07T17:11:29.593Z,100.00
2023-03-07T17:14:34.983Z,100.00
2023-03-07T17:17:38.644Z,100.00
2023-03-07T17:20:43.274Z,100.00
2023-03-07T17:23:48.855Z,100.00
2023-03-07T17:26:53.552Z,100.00
2023-03-07T17:29:56.750Z,100.00
2023-03-07T17:33:00.912Z,100.00
2023-03-07T17:36:05.894Z,100.00
2023-03-07T17:39:09.494Z,100.00
2023-03-07T17:42:13.046Z,100.00
2023-03-07T17:45:16.247Z,100.00
2023-03-07T17:48:19.408Z,100.00
2023-03-07T17:51:24.092Z,100.00
2023-03-07T17:54:27.343Z,100.00
2023-03-07T17:57:30.656Z,100.00
2023-03-07T18:00:33.997Z,100.00
2023-03-07T18:03:37.706Z,100.00
2023-03-07T18:06:42.215Z,100.00
2023-03-07T18:09:45.396Z,100.00
2023-03-07T18:12:50.585Z,100.00
2023-03-07T18:15:53.888Z,100.00
2023-03-07T18:19:00.599Z,100.00
2023-03-07T18:22:05.983Z,100.00
2023-03-07T18:25:13.346Z,100.00
2023-03-07T18:28:16.484Z,100.00
2023-03-07T18:31:22.110Z,100.00
2023-03-07T18:34:25.400Z,100.00
2023-03-07T18:37:30.039Z,100.00
2023-03-07T18:40:33.429Z,100.00
2023-03-07T18:43:37.439Z,100.00
2023-03-07T18:46:40.937Z,100.00
2023-03-07T18:49:44.155Z,100.00
2023-03-07T18:52:48.722Z,100.00
2023-03-07T18:55:51.953Z,100.00
2023-03-07T18:58:56.640Z,100.00
2023-03-07T19:02:03.049Z,100.00
2023-03-07T19:05:07.200Z,100.00
2023-03-07T19:08:11.728Z,100.00
2023-03-07T19:11:16.118Z,100.00
2023-03-07T19:14:19.674Z,100.00
2023-03-07T19:17:22.905Z,100.00
2023-03-07T19:20:26.362Z,100.00
2023-03-07T19:23:30.888Z,100.00
2023-03-07T19:26:34.377Z,100.00
2023-03-07T19:29:37.933Z,100.00
2023-03-07T19:32:41.148Z,100.00
2023-03-07T19:35:47.825Z,100.00
2023-03-07T19:38:54.503Z,100.00
2023-03-07T19:41:57.631Z,100.00
2023-03-07T19:45:10.133Z,100.00
2023-03-07T19:48:13.340Z,100.00
2023-03-07T19:51:18.330Z,100.00
2023-03-07T19:54:23.166Z,100.00
2023-03-07T19:57:26.283Z,100.00
2023-03-07T20:00:29.418Z,100.00
2023-03-07T20:03:32.794Z,100.00
2023-03-07T20:06:36.016Z,100.00
2023-03-07T20:09:40.837Z,100.00
2023-03-07T20:12:43.952Z,100.00
2023-03-07T20:15:52.740Z,100.00
2023-03-07T20:18:57.524Z,100.00
2023-03-07T20:22:00.757Z,100.00
2023-03-07T20:25:06.163Z,100.00
2023-03-07T20:28:09.802Z,100.00
2023-03-07T20:31:13.392Z,100.00
2023-03-07T20:34:16.625Z,100.00
2023-03-07T20:37:20.054Z,100.00
2023-03-07T20:40:24.547Z,100.00
2023-03-07T20:43:27.855Z,100.00
2023-03-07T20:46:32.109Z,100.00
2023-03-07T20:49:36.113Z,100.00
2023-03-07T20:52:39.378Z,100.00
2023-03-07T20:55:44.062Z,100.00
2023-03-07T20:58:47.851Z,100.00
2023-03-07T21:01:51.173Z,100.00
2023-03-07T21:04:54.356Z,100.00
2023-03-07T21:07:57.445Z,100.00
2023-03-07T21:11:03.881Z,100.00
2023-03-07T21:14:08.461Z,100.00
2023-03-07T21:17:13.053Z,100.00
2023-03-07T21:20:16.671Z,100.00
2023-03-07T21:23:20.305Z,100.00
2023-03-07T21:26:27.652Z,100.00
2023-03-07T21:29:30.848Z,100.00
2023-03-07T21:32:34.038Z,100.00
2023-03-07T21:35:38.732Z,100.00
2023-03-07T21:38:42.162Z,100.00
2023-03-07T21:41:46.677Z,100.00
2023-03-07T21:44:49.809Z,100.00
2023-03-07T21:47:54.083Z,100.00
2023-03-07T21:50:57.388Z,100.00
2023-03-07T21:54:00.878Z,100.00
2023-03-07T21:57:05.374Z,100.00
2023-03-07T22:00:13.198Z,100.00
2023-03-07T22:03:16.775Z,100.00
2023-03-07T22:06:19.970Z,100.00
2023-03-07T22:09:23.162Z,100.00
2023-03-07T22:12:27.764Z,100.00
2023-03-07T22:15:30.934Z,100.00
2023-03-07T22:18:34.627Z,100.00
2023-03-07T22:21:38.157Z,100.00
2023-03-07T22:24:41.318Z,100.00
2023-03-07T22:27:45.784Z,100.00
2023-03-07T22:34:23.152Z,100.00
2023-03-07T22:37:26.370Z,100.00
2023-03-07T22:40:29.506Z,100.00
2023-03-07T22:43:33.327Z,100.00
2023-03-07T22:46:36.870Z,100.00
2023-03-07T22:49:41.560Z,100.00
2023-03-07T22:52:44.654Z,100.00
2023-03-07T22:55:47.809Z,100.00
2023-03-07T22:58:51.210Z,100.00
2023-03-07T23:01:54.296Z,100.00
2023-03-07T23:04:58.817Z,100.00
2023-03-07T23:08:02.295Z,100.00
2023-03-07T23:11:08.465Z,100.00
2023-03-07T23:14:11.901Z,100.00
2023-03-07T23:17:15.130Z,100.00
2023-03-07T23:20:19.924Z,100.00
2023-03-07T23:23:23.085Z,100.00
2023-03-07T23:26:28.429Z,100.00
2023-03-07T23:29:31.560Z,100.00
2023-03-07T23:32:34.883Z,100.00
2023-03-07T23:35:39.691Z,100.00
2023-03-07T23:38:44.272Z,100.00
2023-03-07T23:41:47.569Z,100.00
2023-03-07T23:44:50.750Z,100.00
2023-03-07T23:47:54.129Z,100.00
2023-03-07T23:50:58.884Z,100.00
2023-03-07T23:54:02.046Z,100.00
2023-03-07T23:57:05.234Z,100.00
